»·PEaware :: N576TB KRIF-U14

N576TB :: KRIF-U14

FLIGHT INFORMATION

Flight Status: Arrived
Operator: Privately registered:
United States
More flights under this callsign
Pilot: Anonymous 8274 (8274)
Aircraft: BEECH AIRCRAFT DEBONAIR BONANZA
(BE33)
More flights by this aircraft type
Origin: KRIF Richfield Mun
United States
Destination: U14 Nephi Mun
United States
More flights between these airports :: More routes between these airports
Route: +
File this flight plan on PilotEdge
Remarks:
Altitude:
(Current/Filed)
9,500ft
Speed:
(Current/Filed)
0kts
Departed: 14-Oct-18 11:22 AM
Arrived: 14-Oct-18 12:05 PM
Distance/Time
Traveled:
61nm/0:43
Distance/Time
To Go:
Arrived

Flight Plot

Page will automatically refresh every two minutes.

Flight plan parsing failed; only flown route is shown


Map Options




Map Legend


Flown Route
Filed Route
Departure Airport
Arrival Airport
Navaid (VOR, NDB)
Fix

Horizontal Profiles

Position Reports

Time Latitude Longitude Heading Altitude Ground
Speed
14-Oct-18 11:23 38.570930 -112.231207 81 9874ft 140kts
14-Oct-18 11:24 38.578207 -112.179968 44 9535ft 146kts
14-Oct-18 11:25 38.612228 -112.155909 24 9556ft 139kts
14-Oct-18 11:26 38.652272 -112.128129 24 9563ft 142kts
14-Oct-18 11:27 38.681238 -112.108047 24 9563ft 143kts
14-Oct-18 11:28 38.716223 -112.083797 24 9562ft 143kts
14-Oct-18 11:29 38.751155 -112.059578 24 9562ft 143kts
14-Oct-18 11:30 38.783503 -112.030026 39 9562ft 145kts
14-Oct-18 11:31 38.812767 -111.993923 39 9562ft 146kts
14-Oct-18 11:32 38.844827 -111.963148 31 9562ft 144kts
14-Oct-18 11:33 38.877253 -111.933265 31 9562ft 144kts
14-Oct-18 11:34 38.909648 -111.903401 31 9562ft 144kts
14-Oct-18 11:35 38.941886 -111.873437 27 9562ft 143kts
14-Oct-18 11:36 38.975649 -111.846366 27 9562ft 143kts
14-Oct-18 11:37 39.009450 -111.819265 27 9562ft 143kts
14-Oct-18 11:38 39.046052 -111.803801 5 9563ft 141kts
14-Oct-18 11:39 39.091401 -111.794534 8 9561ft 143kts
14-Oct-18 11:40 39.108087 -111.780125 35 9564ft 147kts
14-Oct-18 11:41 39.139241 -111.745679 36 9497ft 152kts
14-Oct-18 11:42 39.171332 -111.711244 32 9481ft 149kts
14-Oct-18 11:43 39.205989 -111.683532 27 9449ft 148kts
14-Oct-18 11:44 39.243081 -111.662532 26 9370ft 142kts
14-Oct-18 11:45 39.278217 -111.641498 33 9369ft 138kts
14-Oct-18 11:46 39.311934 -111.618135 33 9370ft 137kts
14-Oct-18 11:47 39.322469 -111.610846 33 9370ft 137kts
14-Oct-18 11:48 39.356046 -111.587626 33 9370ft 137kts
14-Oct-18 11:49 39.389580 -111.564382 32 9368ft 137kts
14-Oct-18 11:50 39.422958 -111.541294 33 9371ft 137kts
14-Oct-18 11:51 39.458414 -111.560621 321 9372ft 159kts
14-Oct-18 11:52 39.488075 -111.602878 311 9376ft 160kts
14-Oct-18 11:53 39.523756 -111.628157 341 9475ft 145kts
14-Oct-18 11:54 39.561496 -111.644392 338 9483ft 142kts
14-Oct-18 11:55 39.599588 -111.657216 347 9500ft 141kts
14-Oct-18 11:56 39.638674 -111.668942 345 9275ft 154kts
14-Oct-18 11:57 39.688694 -111.686259 323 8697ft 163kts
14-Oct-18 11:58 39.708344 -111.727340 288 8294ft 165kts
14-Oct-18 11:59 39.722101 -111.783681 288 7803ft 165kts
14-Oct-18 12:00 39.740743 -111.835443 329 7489ft 153kts
14-Oct-18 12:01 39.780164 -111.850311 343 7377ft 150kts
14-Oct-18 12:02 39.799083 -111.891853 249 6877ft 157kts
14-Oct-18 12:03 39.756404 -111.895048 151 6206ft 160kts
14-Oct-18 12:04 39.722608 -111.890578 181 5908ft 133kts
14-Oct-18 12:05 39.708756 -111.870145 10 5375ft 95kts
14-Oct-18 12:06 39.734404 -111.870084 359 5006ft 54kts
14-Oct-18 12:07 39.737719 -111.869005 88 5003ft 6kts
14-Oct-18 12:08 39.737719 -111.868986 88 5003ft 0kts
14-Oct-18 12:09 39.737722 -111.867693 91 5006ft 3kts
14-Oct-18 12:10 39.738317 -111.867364 354 5005ft 0kts
14-Oct-18 12:11 39.738317 -111.867364 354 5005ft 0kts
14-Oct-18 12:12 39.738317 -111.867364 354 5005ft 0kts
14-Oct-18 12:13 39.738317 -111.867364 354 5005ft 0kts
14-Oct-18 12:14 39.738317 -111.867364 354 5005ft 0kts
14-Oct-18 12:15 39.738317 -111.867364 354 5005ft 0kts
14-Oct-18 12:16 39.738317 -111.867364 354 5005ft 0kts
14-Oct-18 12:17 39.738317 -111.867364 354 5005ft 0kts
14-Oct-18 12:18 39.738317 -111.867364 354 5005ft 0kts
14-Oct-18 12:19 39.738317 -111.867364 354 5005ft 0kts
14-Oct-18 12:20 39.738317 -111.867364 354 5005ft 0kts
14-Oct-18 12:21 39.738317 -111.867364 354 5005ft 0kts

Navigation Log

Ident Type
Flight plan parsing failed, navigation log unavailable